Weather History for Manitowoc, WI

Change the Weather History Date:

Saturday, December 1, 2012

  Actual Average Record
Temperature  
Mean Temperature 45 °F -  
Max Temperature 53 °F 36 °F 60 °F (1970)
Min Temperature 37 °F 23 °F 0 °F (1976)
Degree Days  
Heating Degree Days 20    
Moisture  
Dew Point 39 °F    
Average Humidity 87    
Maximum Humidity 94    
Minimum Humidity 81    
Precipitation  
Precipitation 0.00 in - - ()
Sea Level Pressure  
Sea Level Pressure 29.98 in    
Wind  
Wind Speed 9 mph (SSE)    
Max Wind Speed 18 mph    
Max Gust Speed 24 mph    
Visibility 3 miles    
Events      
Averages and records for this station are not official NWS values.
T = Trace of Precipitation, MM = Missing Value Source: NWS Daily Summary

Daily Weather History Graph

Daily Weather History Graph

Search for Another Location

Airport:

Trip Planner

Search our weather history database for the weather conditions in past years. The results will help you decide how hot, cold, wet, or windy it might be!

Date:

Astronomy

Dec. 01, 2012 Rise Set
Actual Time 7:06 AM CST 4:13 PM CST
Civil Twilight 6:33 AM CST 4:45 PM CST
Nautical Twilight 5:57 AM CST 5:21 PM CST
Astronomical Twilight 5:22 AM CST 5:56 PM CST
Moon 7:04 PM CST (12/1) 9:17 AM CST (12/1)
Length of Visible Light 10h 12m
Length of Day
9h 06m
Waning Gibbous, 91% of the Moon is Illuminated
Dec 1
Waning Gibbous
Dec 6
Last Quarter
Dec 13
New
Dec 19
First Quarter
Dec 28
Full

Hourly Weather History & Observations

Time (CST) Temp. Windchill Dew Point Humidity Pressure Visibility Wind Dir Wind Speed Gust Speed Precip Events Conditions
12:15 AM 37.4 °F 33.8 °F 33.8 °F 87% 30.21 in 5.0 mi ESE 4.6 mph - N/A   Overcast
12:35 AM 37.4 °F 32.8 °F 33.8 °F 87% 30.19 in 5.0 mi East 5.8 mph - N/A   Overcast
12:55 AM 37.4 °F 34.9 °F 33.8 °F 87% 30.19 in 5.0 mi ESE 3.5 mph - N/A   Overcast
1:15 AM 39.2 °F 33.6 °F 33.8 °F 81% 30.17 in 5.0 mi ESE 8.1 mph - N/A   Overcast
1:35 AM 39.2 °F 34.2 °F 33.8 °F 81% 30.18 in 5.0 mi ESE 6.9 mph - N/A   Overcast
1:55 AM 39.2 °F 34.2 °F 33.8 °F 81% 30.18 in 5.0 mi ESE 6.9 mph - N/A   Overcast
2:15 AM 39.2 °F 35.0 °F 33.8 °F 81% 30.18 in 5.0 mi ESE 5.8 mph - N/A   Overcast
2:55 AM 39.2 °F 33.6 °F 33.8 °F 81% 30.16 in 5.0 mi ESE 8.1 mph - N/A   Overcast
3:15 AM 39.2 °F 33.6 °F 33.8 °F 81% 30.16 in 5.0 mi ESE 8.1 mph - N/A   Overcast
3:35 AM 39.2 °F 33.6 °F 33.8 °F 81% 30.16 in 5.0 mi ESE 8.1 mph - N/A   Overcast
6:15 AM 39.2 °F 32.0 °F 33.8 °F 81% 30.13 in 4.0 mi SE 11.5 mph - N/A   Overcast
6:35 AM 39.2 °F 32.0 °F 33.8 °F 81% 30.12 in 4.0 mi ESE 11.5 mph - N/A   Overcast
6:55 AM 39.2 °F 31.6 °F 33.8 °F 81% 30.12 in 4.0 mi ESE 12.7 mph - N/A   Overcast
7:15 AM 39.2 °F 32.0 °F 33.8 °F 81% 30.12 in 4.0 mi SE 11.5 mph - N/A   Overcast
7:35 AM 39.2 °F 32.0 °F 33.8 °F 81% 30.12 in 3.0 mi SE 11.5 mph - N/A   Overcast
7:55 AM 39.2 °F 31.6 °F 33.8 °F 81% 30.11 in 3.0 mi SE 12.7 mph 18.4 mph N/A   Overcast
8:15 AM 39.2 °F 31.6 °F 33.8 °F 81% 30.11 in 3.0 mi SE 12.7 mph 17.3 mph N/A   Overcast
8:35 AM 39.2 °F 32.0 °F 33.8 °F 81% 30.11 in 3.0 mi SE 11.5 mph - N/A   Overcast
9:15 AM 39.2 °F 31.6 °F 35.6 °F 87% 30.10 in 2.5 mi SE 12.7 mph - N/A   Overcast
9:35 AM 39.2 °F 30.8 °F 35.6 °F 87% 30.08 in 2.5 mi SE 15.0 mph - N/A   Overcast
9:55 AM 39.2 °F 31.2 °F 35.6 °F 87% 30.08 in 2.0 mi SE 13.8 mph 19.6 mph N/A   Overcast
10:15 AM 39.2 °F 31.6 °F 35.6 °F 87% 30.07 in 2.0 mi SE 12.7 mph - N/A   Overcast
10:35 AM 41.0 °F 33.5 °F 35.6 °F 81% 30.05 in 2.0 mi SE 13.8 mph 20.7 mph N/A   Overcast
10:55 AM 41.0 °F 32.2 °F 37.4 °F 87% 30.03 in 2.0 mi SE 18.4 mph 24.2 mph N/A   Overcast
11:15 AM 41.0 °F 33.9 °F 37.4 °F 87% 30.02 in 1.8 mi SE 12.7 mph 19.6 mph N/A   Overcast
11:35 AM 41.0 °F 33.1 °F 37.4 °F 87% 30.01 in 2.0 mi SE 15.0 mph - N/A   Overcast
11:55 AM 42.8 °F 35.1 °F 37.4 °F 81% 30.01 in 2.0 mi SSE 16.1 mph - N/A   Overcast
12:15 PM 42.8 °F 35.8 °F 39.2 °F 87% 30.01 in 2.0 mi SSE 13.8 mph - N/A   Overcast
12:35 PM 42.8 °F 35.8 °F 37.4 °F 81% 29.99 in 1.8 mi SE 13.8 mph - N/A   Overcast
12:55 PM 42.8 °F 35.4 °F 39.2 °F 87% 29.98 in 1.8 mi SSE 15.0 mph - N/A   Overcast
1:15 PM 42.8 °F 35.8 °F 39.2 °F 87% 29.97 in 2.0 mi SE 13.8 mph - N/A   Overcast
1:35 PM 42.8 °F 34.8 °F 39.2 °F 87% 29.95 in 1.8 mi SSE 17.3 mph 21.9 mph N/A   Overcast
1:55 PM 42.8 °F 35.8 °F 39.2 °F 87% 29.94 in 1.8 mi SE 13.8 mph - N/A   Overcast
2:15 PM 42.8 °F 35.1 °F 39.2 °F 87% 29.93 in 1.8 mi SE 16.1 mph 20.7 mph N/A   Overcast
2:35 PM 42.8 °F 35.1 °F 39.2 °F 87% 29.93 in 1.8 mi SE 16.1 mph - N/A   Overcast
2:55 PM 42.8 °F 35.4 °F 39.2 °F 87% 29.91 in 1.8 mi SE 15.0 mph 21.9 mph N/A   Overcast
3:15 PM 42.8 °F 36.2 °F 39.2 °F 87% 29.90 in 2.0 mi SE 12.7 mph - N/A   Overcast
3:35 PM 44.6 °F 38.8 °F 39.2 °F 81% 29.91 in 2.0 mi SSE 11.5 mph - N/A   Overcast
3:55 PM 44.6 °F 38.1 °F 41.0 °F 87% 29.90 in 2.0 mi SSE 13.8 mph 20.7 mph N/A   Overcast
4:15 PM 44.6 °F 37.8 °F 41.0 °F 87% 29.89 in 2.0 mi SSE 15.0 mph 20.7 mph N/A   Overcast
4:35 PM 44.6 °F 38.8 °F 42.8 °F 93% 29.89 in 3.0 mi South 11.5 mph - N/A   Overcast
4:55 PM 44.6 °F 38.4 °F 41.0 °F 87% 29.88 in 2.5 mi South 12.7 mph - N/A   Overcast
5:15 PM 44.6 °F 38.4 °F 42.8 °F 93% 29.86 in 2.0 mi SSE 12.7 mph - N/A   Overcast
5:55 PM 44.6 °F 38.8 °F 42.8 °F 93% 29.86 in 2.0 mi South 11.5 mph - N/A   Overcast
6:15 PM 46.4 °F 42.9 °F 42.8 °F 87% 29.86 in 2.0 mi South 6.9 mph - N/A   Overcast
6:35 PM 46.4 °F 42.4 °F 42.8 °F 87% 29.85 in 2.0 mi South 8.1 mph - N/A   Overcast
6:55 PM 46.4 °F 42.9 °F 44.6 °F 93% 29.85 in 2.0 mi South 6.9 mph - N/A   Overcast
7:15 PM 46.4 °F 41.9 °F 44.6 °F 93% 29.84 in 2.0 mi South 9.2 mph - N/A   Overcast
7:35 PM 46.4 °F 42.9 °F 44.6 °F 93% 29.83 in 2.0 mi South 6.9 mph - N/A   Overcast
7:55 PM 46.4 °F 42.4 °F 44.6 °F 93% 29.83 in 2.0 mi South 8.1 mph - N/A   Overcast
8:15 PM 46.4 °F 44.3 °F 44.6 °F 93% 29.83 in 2.0 mi SSW 4.6 mph - N/A   Overcast
8:35 PM 48.2 °F - 44.6 °F 87% 29.83 in 2.5 mi SW 6.9 mph - N/A   Overcast
8:55 PM 48.2 °F - 44.6 °F 87% 29.83 in 2.0 mi SSW 5.8 mph - N/A   Overcast
9:15 PM 48.2 °F - 44.6 °F 87% 29.83 in 1.8 mi SSW 5.8 mph - N/A   Overcast
9:35 PM 48.2 °F - 46.4 °F 93% 29.82 in 1.8 mi SSW 4.6 mph - N/A   Overcast
9:55 PM 48.2 °F - 46.4 °F 93% 29.82 in 2.0 mi SSW 5.8 mph - N/A   Overcast
10:15 PM 48.2 °F - 44.6 °F 87% 29.82 in 1.5 mi South 4.6 mph - N/A   Overcast
10:35 PM 48.2 °F - 46.4 °F 93% 29.81 in 1.5 mi South 4.6 mph - N/A   Overcast
10:55 PM 48.2 °F - 46.4 °F 93% 29.81 in 1.8 mi SSW 5.8 mph - N/A   Overcast
11:15 PM 53.6 °F - 51.8 °F 94% 29.81 in 5.0 mi SW 8.1 mph - N/A   Overcast
11:35 PM 53.6 °F - 51.8 °F 94% 29.81 in 5.0 mi SW 9.2 mph - N/A   Overcast
11:55 PM 53.6 °F - 51.8 °F 94% 29.80 in 5.0 mi SW 10.4 mph - N/A   Overcast